Time;durP1;ratioP1;P1;durP2;ratioP2;P2;SDS_P1;SDS_P2;PMS_P1;PMS_P2;Temp;Humidity;BMP_temperature;BMP_pressure;BME280_temperature;BME280_humidity;BME280_pressure;Samples;Min_cycle;Max_cycle;Signal;HPM_P1;HPM_P2
2022/11/23 00:01:23;;;;;;;20.55;13.80;;;7.30;99.90;;;;;;5066900;28;20051;-76
2022/11/23 00:03:52;;;;;;;21.52;13.98;;;7.30;99.90;;;;;;5067679;28;20635;-76
2022/11/23 00:06:20;;;;;;;21.38;14.65;;;7.30;99.90;;;;;;5049085;28;20068;-75
2022/11/23 00:08:46;;;;;;;22.60;14.25;;;7.30;99.90;;;;;;5050748;28;20064;-75
2022/11/23 00:11:11;;;;;;;21.77;14.52;;;7.30;99.90;;;;;;5047126;28;20115;-75
2022/11/23 00:13:39;;;;;;;21.52;14.57;;;7.30;99.90;;;;;;5083537;28;20036;-75
2022/11/23 00:16:11;;;;;;;22.35;14.65;;;7.30;99.90;;;;;;5047902;28;20316;-75
2022/11/23 00:18:37;;;;;;;19.70;14.45;;;7.30;99.90;;;;;;5066949;28;20040;-75
2022/11/23 00:21:11;;;;;;;22.17;15.20;;;6.90;99.90;;;;;;5049959;28;20524;-75
2022/11/23 00:23:37;;;;;;;21.25;14.20;;;7.30;99.90;;;;;;5067265;28;20497;-75
2022/11/23 00:26:04;;;;;;;25.58;15.30;;;7.60;99.90;;;;;;5050926;28;20037;-75
2022/11/23 00:28:30;;;;;;;21.67;14.85;;;7.40;99.90;;;;;;5049241;28;20106;-75
2022/11/23 00:30:56;;;;;;;22.73;15.35;;;7.40;99.90;;;;;;5052117;28;20083;-75
2022/11/23 00:33:22;;;;;;;21.13;14.30;;;7.40;99.90;;;;;;5046485;28;20041;-75
2022/11/23 00:35:57;;;;;;;24.05;15.68;;;7.70;99.90;;;;;;5030311;28;20537;-75
2022/11/23 00:38:22;;;;;;;25.13;16.13;;;7.40;99.90;;;;;;5048281;28;20106;-75
2022/11/23 00:40:48;;;;;;;23.90;16.08;;;8.40;99.90;;;;;;5046701;28;20559;-74
2022/11/23 00:43:14;;;;;;;23.33;15.13;;;7.40;99.90;;;;;;5052295;28;20067;-75
2022/11/23 00:45:40;;;;;;;23.58;15.82;;;7.40;99.90;;;;;;5033623;28;20045;-75
2022/11/23 00:48:05;;;;;;;23.02;15.63;;;7.40;99.90;;;;;;5050404;28;20123;-75
2022/11/23 00:50:31;;;;;;;24.63;15.82;;;7.60;99.90;;;;;;5033819;28;20564;-74
2022/11/23 00:52:57;;;;;;;22.30;15.60;;;7.40;99.90;;;;;;5033412;28;20094;-75
2022/11/23 00:55:23;;;;;;;22.60;15.20;;;;;;;;;;5033899;28;20132;-74
2022/11/23 00:57:48;;;;;;;20.52;15.18;;;7.50;99.90;;;;;;5051768;28;20041;-74
2022/11/23 01:00:15;;;;;;;23.17;16.25;;;7.40;99.90;;;;;;5048377;28;20398;-75
2022/11/23 01:02:41;;;;;;;25.40;16.52;;;7.50;99.90;;;;;;5031375;28;20047;-74
2022/11/23 01:05:07;;;;;;;24.52;16.40;;;7.50;99.90;;;;;;5033769;28;20041;-75
2022/11/23 01:07:32;;;;;;;22.48;16.30;;;7.40;99.90;;;;;;5032536;28;20037;-75
2022/11/23 01:10:01;;;;;;;24.00;16.75;;;7.50;99.90;;;;;;5049621;28;20418;-76
2022/11/23 01:12:28;;;;;;;23.48;16.20;;;7.50;99.90;;;;;;5014655;28;20037;-75
2022/11/23 01:14:53;;;;;;;24.95;16.73;;;7.50;99.90;;;;;;5051433;28;20409;-76
2022/11/23 01:17:19;;;;;;;26.13;17.05;;;7.50;99.90;;;;;;5050179;28;20044;-75
2022/11/23 01:19:45;;;;;;;21.58;15.25;;;7.40;99.90;;;;;;5032000;28;20047;-75
2022/11/23 01:22:11;;;;;;;24.40;15.63;;;7.50;99.90;;;;;;5032832;28;20098;-76
2022/11/23 01:24:36;;;;;;;24.45;16.65;;;7.50;99.90;;;;;;5050094;28;20042;-75
2022/11/23 01:27:02;;;;;;;25.40;16.00;;;7.50;99.90;;;;;;5050560;28;20041;-75
2022/11/23 01:29:28;;;;;;;22.65;15.35;;;7.50;99.90;;;;;;5032361;28;20044;-75
2022/11/23 01:31:54;;;;;;;24.15;16.35;;;7.10;99.90;;;;;;5051228;28;20102;-75
2022/11/23 01:34:22;;;;;;;24.58;16.13;;;7.50;99.90;;;;;;5046677;28;20075;-75
2022/11/23 01:36:48;;;;;;;24.55;16.60;;;7.50;99.90;;;;;;5050034;28;20403;-76
2022/11/23 01:39:13;;;;;;;26.60;17.20;;;7.70;99.90;;;;;;5048468;28;20056;-75
2022/11/23 01:41:41;;;;;;;26.00;16.38;;;7.50;99.90;;;;;;5033505;28;20084;-76
2022/11/23 01:44:40;;;;;;;26.70;16.38;;;7.50;99.90;;;;;;5047608;28;20044;-75
2022/11/23 01:47:07;;;;;;;25.50;16.02;;;7.60;99.90;;;;;;4994017;28;20049;-76
2022/11/23 01:49:41;;;;;;;22.45;15.93;;;7.50;99.90;;;;;;5049907;28;20033;-75
2022/11/23 01:52:25;;;;;;;23.88;15.77;;;7.50;99.90;;;;;;5048665;28;20037;-75
2022/11/23 01:54:56;;;;;;;24.20;15.68;;;7.60;99.90;;;;;;5022630;28;20060;-74
2022/11/23 01:57:30;;;;;;;25.15;15.27;;;9.00;99.90;;;;;;5050286;28;20045;-75
2022/11/23 01:59:56;;;;;;;25.50;16.30;;;7.60;99.90;;;;;;5047677;28;20274;-75
2022/11/23 02:02:25;;;;;;;22.73;15.02;;;7.60;99.90;;;;;;5023768;28;20343;-75
2022/11/23 02:04:53;;;;;;;25.05;16.30;;;7.80;99.90;;;;;;5049627;28;20586;-75
2022/11/23 02:07:22;;;;;;;26.52;15.48;;;7.60;99.90;;;;;;5031224;28;20037;-75
2022/11/23 02:09:49;;;;;;;26.65;16.13;;;7.80;99.90;;;;;;5032599;28;20433;-76
2022/11/23 02:12:15;;;;;;;24.35;15.73;;;7.60;99.90;;;;;;5047606;28;20061;-76
2022/11/23 02:14:41;;;;;;;26.08;16.02;;;7.60;99.90;;;;;;5049605;28;20072;-75
2022/11/23 02:17:08;;;;;;;26.98;15.90;;;7.60;99.90;;;;;;5047306;28;20053;-74
2022/11/23 02:20:05;;;;;;;26.67;16.27;;;7.60;99.90;;;;;;5049891;28;20035;-76
2022/11/23 02:22:52;;;;;;;23.50;15.63;;;7.60;99.90;;;;;;5042155;28;20048;-74
2022/11/23 02:25:44;;;;;;;29.33;16.45;;;7.60;99.90;;;;;;5039131;28;20037;-74
2022/11/23 02:28:24;;;;;;;25.27;16.05;;;7.60;99.90;;;;;;5027948;28;20056;-76
2022/11/23 02:30:53;;;;;;;25.77;15.63;;;7.60;99.90;;;;;;5047535;28;20049;-76
2022/11/23 02:33:19;;;;;;;23.63;15.05;;;7.60;99.90;;;;;;5046026;28;20048;-75
2022/11/23 02:35:53;;;;;;;22.77;14.85;;;7.60;99.90;;;;;;5048763;28;20028;-75
2022/11/23 02:38:25;;;;;;;24.63;14.30;;;7.90;99.90;;;;;;5046572;28;20534;-74
2022/11/23 02:40:51;;;;;;;22.48;14.27;;;8.60;99.90;;;;;;5031035;28;20048;-75
2022/11/23 02:43:17;;;;;;;26.90;14.52;;;7.60;99.90;;;;;;5011851;28;20438;-75
2022/11/23 02:45:55;;;;;;;24.70;14.93;;;7.70;99.90;;;;;;5031041;28;20406;-74
2022/11/23 02:48:21;;;;;;;24.55;13.57;;;7.70;99.90;;;;;;5048483;28;20045;-75
2022/11/23 02:50:47;;;;;;;21.33;13.77;;;7.70;99.90;;;;;;5049353;28;20036;-75
2022/11/23 02:53:13;;;;;;;26.88;14.50;;;7.70;99.90;;;;;;5046243;28;20430;-75
2022/11/23 02:55:39;;;;;;;23.05;13.68;;;7.70;99.90;;;;;;5048173;28;20049;-75
2022/11/23 02:58:06;;;;;;;21.98;13.02;;;7.70;99.90;;;;;;5045784;28;20090;-75
2022/11/23 03:00:32;;;;;;;22.30;13.35;;;8.10;99.90;;;;;;5045213;28;20041;-75
2022/11/23 03:03:00;;;;;;;19.90;13.38;;;7.70;99.90;;;;;;5049436;28;20072;-75
2022/11/23 03:05:26;;;;;;;25.23;14.27;;;7.80;99.90;;;;;;5010680;28;20037;-76
2022/11/23 03:07:51;;;;;;;21.98;13.80;;;8.10;99.90;;;;;;5030691;28;20052;-76
2022/11/23 03:10:18;;;;;;;24.38;13.48;;;7.90;99.90;;;;;;5030980;28;20102;-74
2022/11/23 03:12:44;;;;;;;21.67;13.40;;;7.80;99.90;;;;;;5047286;28;20044;-75
2022/11/23 03:15:15;;;;;;;22.95;13.20;;;7.80;99.90;;;;;;5045655;28;20033;-75
2022/11/23 03:17:41;;;;;;;22.80;13.68;;;7.80;99.90;;;;;;5047682;28;20518;-75
2022/11/23 03:20:09;;;;;;;25.73;13.20;;;7.80;99.90;;;;;;5046675;28;20406;-76
2022/11/23 03:22:35;;;;;;;22.67;13.50;;;7.80;99.90;;;;;;5015137;28;20043;-76
2022/11/23 03:25:01;;;;;;;22.63;12.85;;;7.80;99.90;;;;;;5046892;28;20464;-77
2022/11/23 03:27:32;;;;;;;23.83;12.88;;;7.80;99.90;;;;;;5044237;28;20208;-75
2022/11/23 03:29:58;;;;;;;19.70;12.10;;;8.00;99.90;;;;;;5046472;28;20544;-76
2022/11/23 03:32:24;;;;;;;20.73;12.40;;;7.80;99.90;;;;;;5045539;28;20055;-75
2022/11/23 03:34:50;;;;;;;18.35;11.68;;;8.00;99.90;;;;;;5031304;28;20705;-75
2022/11/23 03:37:16;;;;;;;18.60;11.35;;;7.80;99.90;;;;;;5030125;28;20044;-75
2022/11/23 03:39:41;;;;;;;20.05;11.73;;;7.80;99.90;;;;;;5047921;28;20091;-75
2022/11/23 03:42:07;;;;;;;18.35;11.52;;;7.70;99.90;;;;;;5012155;28;20044;-75
2022/11/23 03:44:33;;;;;;;18.23;10.70;;;7.80;99.90;;;;;;5048411;28;20091;-76
2022/11/23 03:46:59;;;;;;;19.55;11.63;;;7.80;99.90;;;;;;5047950;28;20072;-75
2022/11/23 03:49:25;;;;;;;19.08;11.15;;;7.80;99.90;;;;;;5030060;28;20049;-76
2022/11/23 03:51:50;;;;;;;20.70;11.20;;;8.20;99.90;;;;;;5030318;28;20542;-75
2022/11/23 03:54:16;;;;;;;19.30;11.23;;;;;;;;;;5015246;28;20108;-76
2022/11/23 03:56:42;;;;;;;19.70;10.98;;;7.80;99.90;;;;;;5038794;28;20036;-75
2022/11/23 03:59:08;;;;;;;17.63;10.95;;;7.80;99.90;;;;;;5027864;28;20155;-75
2022/11/23 04:01:34;;;;;;;21.65;11.73;;;7.90;99.90;;;;;;5045373;28;20098;-76
2022/11/23 04:03:59;;;;;;;20.77;11.80;;;7.90;99.90;;;;;;5045294;28;20051;-75
2022/11/23 04:06:25;;;;;;;19.98;10.82;;;6.70;99.90;;;;;;5046045;28;20048;-75
2022/11/23 04:08:51;;;;;;;20.60;11.55;;;8.00;99.90;;;;;;5046169;28;20102;-76
2022/11/23 04:11:17;;;;;;;20.90;11.85;;;7.90;99.90;;;;;;5029851;28;20041;-76
2022/11/23 04:13:42;;;;;;;18.27;11.13;;;7.90;99.90;;;;;;5026373;28;20038;-75
2022/11/23 04:16:08;;;;;;;21.27;11.55;;;7.90;99.90;;;;;;4994791;28;20037;-76
2022/11/23 04:18:34;;;;;;;21.35;12.30;;;7.90;99.90;;;;;;5013218;28;20041;-75
2022/11/23 04:21:00;;;;;;;20.67;11.90;;;7.90;99.90;;;;;;5045878;28;20299;-76
2022/11/23 04:23:25;;;;;;;22.63;13.07;;;7.90;99.90;;;;;;5014198;28;20426;-75
2022/11/23 04:25:51;;;;;;;21.52;12.18;;;7.90;99.90;;;;;;5046427;28;20044;-75
2022/11/23 04:28:17;;;;;;;21.23;12.23;;;;;;;;;;5041637;28;20148;-75
2022/11/23 04:30:43;;;;;;;24.40;12.45;;;7.90;99.90;;;;;;5039683;28;20475;-75
2022/11/23 04:33:08;;;;;;;21.98;12.63;;;7.90;99.90;;;;;;5047575;28;20072;-75
2022/11/23 04:35:35;;;;;;;25.20;12.82;;;7.90;99.90;;;;;;5048130;28;20087;-76
2022/11/23 04:38:01;;;;;;;24.58;13.18;;;8.30;99.90;;;;;;5040932;28;20055;-75
2022/11/23 04:40:28;;;;;;;28.27;13.63;;;7.90;99.90;;;;;;5046586;28;20476;-75
2022/11/23 04:42:53;;;;;;;24.80;12.95;;;8.60;99.90;;;;;;5043226;28;20045;-75
2022/11/23 04:45:19;;;;;;;24.40;13.35;;;7.90;99.90;;;;;;5046297;28;20134;-76
2022/11/23 04:47:45;;;;;;;23.73;12.57;;;8.40;99.90;;;;;;5043178;28;20053;-75
2022/11/23 04:50:10;;;;;;;22.73;13.40;;;7.90;99.90;;;;;;5029454;28;20555;-76
2022/11/23 04:52:36;;;;;;;25.08;13.52;;;7.90;99.90;;;;;;5046153;28;20033;-75
2022/11/23 04:55:02;;;;;;;24.55;13.52;;;8.00;99.90;;;;;;5030309;28;20066;-75
2022/11/23 04:57:28;;;;;;;24.50;13.60;;;7.90;99.90;;;;;;5046059;28;20036;-75
2022/11/23 04:59:53;;;;;;;24.23;14.18;;;8.30;99.90;;;;;;5044564;28;20049;-75
2022/11/23 05:02:19;;;;;;;29.48;15.25;;;8.20;99.90;;;;;;5046243;28;20126;-74
2022/11/23 05:04:45;;;;;;;26.35;14.93;;;8.30;99.90;;;;;;5043414;28;20509;-76
2022/11/23 05:07:11;;;;;;;27.67;14.68;;;8.00;99.90;;;;;;5029727;28;20480;-76
2022/11/23 05:09:39;;;;;;;25.83;14.98;;;7.90;99.90;;;;;;5028757;28;20530;-75
2022/11/23 05:12:05;;;;;;;28.90;14.77;;;8.00;99.90;;;;;;5046874;28;20155;-75
2022/11/23 05:14:31;;;;;;;27.48;16.48;;;8.00;99.90;;;;;;5041910;28;20060;-76
2022/11/23 05:16:57;;;;;;;27.70;15.45;;;8.90;99.90;;;;;;5045330;28;20122;-76
2022/11/23 05:19:22;;;;;;;27.75;15.05;;;8.00;99.90;;;;;;5027971;28;20040;-76
2022/11/23 05:21:48;;;;;;;24.00;14.70;;;8.00;99.90;;;;;;5027471;28;20410;-74
2022/11/23 05:24:14;;;;;;;26.50;15.02;;;8.00;99.90;;;;;;5043423;28;20524;-76
2022/11/23 05:26:39;;;;;;;28.55;15.95;;;8.00;99.90;;;;;;5028112;28;20045;-75
2022/11/23 05:29:05;;;;;;;28.48;16.17;;;8.30;99.90;;;;;;5043710;28;20118;-75
2022/11/23 05:31:31;;;;;;;29.45;16.55;;;8.00;99.90;;;;;;5031364;28;20076;-75
2022/11/23 05:33:57;;;;;;;26.30;15.32;;;8.00;99.90;;;;;;5013374;28;20487;-75
2022/11/23 05:36:22;;;;;;;29.33;15.55;;;8.10;99.90;;;;;;5043966;28;20076;-75
2022/11/23 05:38:48;;;;;;;28.73;15.43;;;8.00;99.90;;;;;;5045978;28;20482;-75
2022/11/23 05:41:14;;;;;;;31.33;16.17;;;8.00;99.90;;;;;;5028040;28;20033;-75
2022/11/23 05:43:40;;;;;;;31.60;16.33;;;8.00;99.90;;;;;;5030294;28;20510;-74
2022/11/23 05:46:05;;;;;;;30.73;15.98;;;8.00;99.90;;;;;;5030516;28;20091;-76
2022/11/23 05:48:31;;;;;;;30.63;16.38;;;8.30;99.90;;;;;;5048555;28;20037;-75
2022/11/23 05:50:57;;;;;;;27.83;15.50;;;8.00;99.90;;;;;;5027038;28;20048;-77
2022/11/23 05:53:22;;;;;;;28.30;16.63;;;8.00;99.90;;;;;;5041879;28;20083;-74
2022/11/23 05:55:48;;;;;;;30.48;16.35;;;8.00;99.90;;;;;;5026108;28;20041;-75
2022/11/23 05:58:14;;;;;;;26.23;16.27;;;8.00;99.90;;;;;;5025933;28;20040;-76
2022/11/23 06:00:40;;;;;;;28.25;16.20;;;8.00;99.90;;;;;;5043726;28;20392;-75
2022/11/23 06:03:05;;;;;;;31.95;16.35;;;8.10;99.90;;;;;;5045075;28;20037;-75
2022/11/23 06:05:31;;;;;;;26.15;16.42;;;9.70;99.90;;;;;;5049250;28;20048;-76
2022/11/23 06:07:57;;;;;;;29.20;17.48;;;8.00;99.90;;;;;;5048549;28;20045;-76
2022/11/23 06:10:23;;;;;;;30.25;16.52;;;8.10;99.90;;;;;;5048143;28;20056;-75
2022/11/23 06:12:50;;;;;;;29.38;16.45;;;8.10;99.90;;;;;;5050373;28;20037;-76
2022/11/23 06:15:16;;;;;;;27.08;15.57;;;8.10;99.90;;;;;;5050889;28;20045;-74
2022/11/23 06:17:42;;;;;;;32.28;16.15;;;8.10;99.90;;;;;;5050365;28;20490;-76
2022/11/23 06:20:08;;;;;;;28.38;16.25;;;8.10;99.90;;;;;;5029085;28;20475;-76
2022/11/23 06:22:34;;;;;;;30.98;15.45;;;8.10;99.90;;;;;;5056529;28;20036;-76
2022/11/23 06:25:00;;;;;;;25.90;15.90;;;8.10;99.90;;;;;;5019772;28;20512;-76
2022/11/23 06:27:26;;;;;;;28.00;15.27;;;8.10;99.90;;;;;;5042612;28;20033;-74
2022/11/23 06:29:52;;;;;;;27.23;14.93;;;8.00;99.90;;;;;;5036830;28;20037;-75
2022/11/23 06:32:17;;;;;;;24.92;14.02;;;8.00;99.90;;;;;;5050087;28;20033;-75
2022/11/23 06:34:43;;;;;;;26.10;14.90;;;8.10;99.90;;;;;;5017298;28;20048;-75
2022/11/23 06:37:09;;;;;;;23.67;14.25;;;8.00;99.90;;;;;;5032846;28;20044;-76
2022/11/23 06:39:35;;;;;;;24.27;14.23;;;8.00;99.90;;;;;;5049892;28;20045;-76
2022/11/23 06:42:00;;;;;;;26.77;14.38;;;8.80;99.90;;;;;;5047415;28;20061;-76
2022/11/23 06:44:26;;;;;;;25.00;13.05;;;8.00;99.90;;;;;;5049967;28;20041;-76
2022/11/23 06:46:52;;;;;;;23.50;13.40;;;8.00;99.90;;;;;;5032020;28;20048;-76
2022/11/23 06:49:19;;;;;;;25.15;13.32;;;8.00;99.90;;;;;;5033196;28;20041;-75
2022/11/23 06:51:48;;;;;;;25.25;14.00;;;8.00;99.90;;;;;;5047721;28;20048;-76
2022/11/23 06:54:14;;;;;;;24.17;12.95;;;9.20;99.90;;;;;;5049752;28;20064;-76
2022/11/23 06:56:39;;;;;;;27.05;14.18;;;9.10;99.90;;;;;;5031826;28;20474;-76
2022/11/23 06:59:05;;;;;;;24.95;12.57;;;8.00;99.90;;;;;;5029352;28;20041;-77
2022/11/23 07:01:31;;;;;;;25.58;13.00;;;8.00;99.90;;;;;;5024117;28;20068;-75
2022/11/23 07:03:57;;;;;;;22.60;11.77;;;7.90;99.90;;;;;;5028490;28;20036;-77
2022/11/23 07:06:23;;;;;;;19.50;11.55;;;8.00;99.90;;;;;;5045849;28;20450;-76
2022/11/23 07:08:54;;;;;;;26.25;12.50;;;7.90;99.90;;;;;;5041106;28;20048;-74
2022/11/23 07:11:22;;;;;;;24.02;10.98;;;7.90;99.90;;;;;;5034301;28;20112;-76
2022/11/23 07:13:48;;;;;;;22.60;11.30;;;9.20;99.90;;;;;;5040195;28;20128;-76
2022/11/23 07:16:14;;;;;;;20.50;11.25;;;7.90;99.90;;;;;;5038720;28;20032;-75
2022/11/23 07:18:39;;;;;;;21.77;11.50;;;7.80;99.90;;;;;;5045743;28;20044;-76
2022/11/23 07:21:05;;;;;;;19.98;10.73;;;7.90;99.90;;;;;;5024944;28;20365;-75
2022/11/23 07:23:31;;;;;;;19.70;11.18;;;8.50;99.90;;;;;;5021085;28;20052;-76
2022/11/23 07:25:57;;;;;;;21.58;10.98;;;7.90;99.90;;;;;;5024585;28;20048;-76
2022/11/23 07:28:23;;;;;;;22.13;10.43;;;9.00;99.90;;;;;;5041343;28;20048;-76
2022/11/23 07:30:50;;;;;;;19.75;9.88;;;7.80;99.90;;;;;;5040570;28;20040;-76
2022/11/23 07:33:16;;;;;;;18.35;9.93;;;7.90;99.90;;;;;;5039127;28;20076;-76
2022/11/23 07:35:41;;;;;;;24.00;9.75;;;7.80;99.90;;;;;;5026630;28;20090;-77
2022/11/23 07:38:08;;;;;;;21.15;9.48;;;8.10;99.90;;;;;;5026167;28;20386;-76
2022/11/23 07:40:36;;;;;;;19.73;10.02;;;7.80;99.90;;;;;;5042910;28;20092;-75
2022/11/23 07:43:03;;;;;;;19.08;8.90;;;8.90;99.90;;;;;;5021505;28;20045;-76
2022/11/23 07:45:29;;;;;;;18.48;9.18;;;7.90;99.90;;;;;;5028433;28;20481;-77
2022/11/23 07:48:04;;;;;;;20.80;8.88;;;8.30;99.90;;;;;;5028865;28;20037;-75
2022/11/23 07:50:31;;;;;;;19.27;8.35;;;7.90;99.90;;;;;;5026613;28;20043;-76
2022/11/23 07:52:57;;;;;;;18.45;7.90;;;7.90;99.90;;;;;;5049418;28;20612;-76
2022/11/23 07:55:23;;;;;;;19.70;7.63;;;7.90;99.90;;;;;;5025620;28;20073;-78
2022/11/23 07:57:53;;;;;;;19.25;7.63;;;7.90;99.90;;;;;;5044649;28;20445;-76
2022/11/23 08:00:21;;;;;;;21.30;7.25;;;7.90;99.90;;;;;;5029466;28;20586;-76
2022/11/23 08:02:47;;;;;;;18.67;7.35;;;7.90;99.90;;;;;;5024520;28;20057;-76
2022/11/23 08:05:13;;;;;;;18.88;7.80;;;7.90;99.90;;;;;;5041671;28;20519;-75
2022/11/23 08:07:40;;;;;;;18.52;7.07;;;7.90;99.90;;;;;;5048535;28;20049;-76
2022/11/23 08:10:06;;;;;;;18.20;6.78;;;7.90;99.90;;;;;;5044413;28;20059;-76
2022/11/23 08:12:35;;;;;;;13.45;6.40;;;8.00;99.90;;;;;;5045619;28;20623;-77
2022/11/23 08:15:01;;;;;;;19.85;6.63;;;8.00;99.90;;;;;;5044937;28;20152;-76
2022/11/23 08:17:27;;;;;;;15.82;6.38;;;8.10;99.90;;;;;;5028784;28;20047;-75
2022/11/23 08:19:52;;;;;;;18.10;6.47;;;8.00;99.90;;;;;;5041243;28;20054;-76
2022/11/23 08:22:18;;;;;;;15.35;6.57;;;8.00;99.90;;;;;;5041489;28;20056;-75
2022/11/23 08:24:44;;;;;;;18.73;6.45;;;8.10;99.90;;;;;;5014902;28;20562;-76
2022/11/23 08:27:10;;;;;;;16.58;6.15;;;8.00;99.90;;;;;;5040444;28;20048;-75
2022/11/23 08:29:35;;;;;;;16.05;5.97;;;8.00;99.90;;;;;;5041624;28;20144;-75
2022/11/23 08:32:01;;;;;;;17.70;5.70;;;8.00;99.90;;;;;;5031874;28;20033;-76
2022/11/23 08:34:30;;;;;;;17.25;6.18;;;8.10;99.90;;;;;;5028013;28;20037;-76
2022/11/23 08:36:56;;;;;;;13.38;5.85;;;8.10;99.90;;;;;;5046705;28;20062;-76
2022/11/23 08:39:22;;;;;;;19.35;6.50;;;9.00;99.90;;;;;;5028668;28;20419;-77
2022/11/23 08:41:47;;;;;;;15.20;5.88;;;8.10;99.90;;;;;;5027248;28;20048;-76
2022/11/23 08:44:13;;;;;;;15.30;5.82;;;8.10;99.90;;;;;;5041239;28;20038;-76
2022/11/23 08:46:39;;;;;;;12.70;5.55;;;8.10;99.90;;;;;;5026632;28;20115;-76
2022/11/23 08:49:06;;;;;;;16.60;5.80;;;8.20;99.90;;;;;;5027633;28;20083;-76
2022/11/23 08:51:32;;;;;;;13.85;5.57;;;8.20;99.90;;;;;;5010462;28;20530;-75
2022/11/23 08:53:58;;;;;;;20.83;5.70;;;8.20;99.90;;;;;;5009856;28;20103;-75
2022/11/23 08:56:23;;;;;;;15.90;5.43;;;8.20;99.90;;;;;;5043530;28;20563;-76
2022/11/23 08:58:49;;;;;;;13.75;5.30;;;8.20;99.90;;;;;;5047674;28;20124;-76
2022/11/23 09:01:16;;;;;;;18.85;6.07;;;8.30;99.90;;;;;;5048054;28;20036;-76
2022/11/23 09:03:43;;;;;;;14.60;5.28;;;8.40;99.90;;;;;;5053147;28;20536;-76
2022/11/23 09:06:09;;;;;;;14.80;5.60;;;8.40;99.90;;;;;;5052436;28;20053;-75
2022/11/23 09:08:35;;;;;;;14.05;5.13;;;8.60;99.90;;;;;;5048196;28;20502;-75
2022/11/23 09:11:04;;;;;;;19.40;5.90;;;8.50;99.90;;;;;;5053305;28;20513;-76
2022/11/23 09:13:37;;;;;;;17.17;5.88;;;8.50;99.90;;;;;;5032573;28;20049;-78
2022/11/23 09:16:04;;;;;;;;;;;8.50;99.90;;;;;;5047433;28;20033;-76
2022/11/23 09:18:30;;;;;;;16.02;5.57;;;8.40;99.90;;;;;;5033613;28;19920;-76
2022/11/23 09:20:57;;;;;;;15.30;5.43;;;8.50;99.90;;;;;;5050026;28;20045;-75
2022/11/23 09:23:25;;;;;;;15.05;5.47;;;7.90;99.90;;;;;;5033205;28;20037;-76
2022/11/23 09:25:54;;;;;;;12.63;5.25;;;8.50;99.90;;;;;;5047983;28;20106;-76
2022/11/23 09:28:19;;;;;;;15.65;5.50;;;8.50;99.90;;;;;;5048855;28;20449;-76
2022/11/23 09:30:46;;;;;;;15.35;5.03;;;8.50;99.90;;;;;;5014080;28;20102;-76
2022/11/23 09:33:12;;;;;;;14.45;5.15;;;8.60;99.90;;;;;;5030356;28;20041;-76
2022/11/23 09:35:38;;;;;;;22.48;6.10;;;9.20;99.90;;;;;;5027926;28;20045;-75
2022/11/23 09:38:04;;;;;;;17.90;5.43;;;8.70;99.90;;;;;;5047840;28;20578;-75
2022/11/23 09:40:40;;;;;;;16.27;5.10;;;8.70;99.90;;;;;;5046390;28;20040;-75
2022/11/23 09:43:25;;;;;;;12.73;5.40;;;8.80;99.90;;;;;;5046917;28;20560;-76
2022/11/23 09:45:54;;;;;;;17.23;5.38;;;8.90;99.90;;;;;;5047665;28;20045;-75
2022/11/23 09:48:42;;;;;;;16.65;5.32;;;9.00;99.90;;;;;;5027388;28;20053;-76
2022/11/23 09:51:19;;;;;;;14.50;5.15;;;9.10;99.90;;;;;;5044837;28;20490;-76
2022/11/23 09:53:50;;;;;;;15.45;5.05;;;9.00;99.90;;;;;;5049356;28;20079;-76
2022/11/23 09:56:29;;;;;;;18.17;4.70;;;9.10;99.90;;;;;;5047657;28;20040;-76
2022/11/23 09:59:09;;;;;;;13.00;4.40;;;9.10;99.90;;;;;;5037700;28;20117;-75
2022/11/23 10:01:35;;;;;;;12.73;4.85;;;9.10;99.90;;;;;;5045192;28;20469;-75
2022/11/23 10:04:03;;;;;;;13.63;4.25;;;9.00;99.90;;;;;;5015381;28;20128;-76
2022/11/23 10:06:33;;;;;;;17.27;4.68;;;9.00;99.90;;;;;;5034551;28;21548;-77
2022/11/23 10:09:02;;;;;;;17.48;4.75;;;8.00;99.90;;;;;;5048697;28;20098;-76
2022/11/23 10:11:47;;;;;;;14.55;4.93;;;9.00;99.90;;;;;;5046504;28;20037;-75
2022/11/23 10:14:52;;;;;;;12.95;4.40;;;8.90;99.90;;;;;;5046023;28;20037;-77
2022/11/23 10:17:47;;;;;;;15.00;4.95;;;9.00;99.90;;;;;;5045986;28;20047;-76
2022/11/23 10:20:50;;;;;;;16.98;4.65;;;9.00;99.90;;;;;;5048885;28;20103;-76
2022/11/23 10:23:15;;;;;;;18.53;4.53;;;9.00;99.90;;;;;;5025607;28;20037;-76
2022/11/23 10:25:49;;;;;;;13.63;4.90;;;9.00;99.90;;;;;;5045196;28;20466;-76
2022/11/23 10:28:18;;;;;;;13.50;4.93;;;9.00;99.90;;;;;;5045502;28;20037;-76
2022/11/23 10:31:06;;;;;;;16.55;5.22;;;9.00;99.90;;;;;;5044306;28;20120;-76
2022/11/23 10:33:42;;;;;;;16.08;4.72;;;9.00;99.90;;;;;;5047732;28;20041;-76
2022/11/23 10:36:12;;;;;;;16.45;4.60;;;9.10;99.90;;;;;;5050034;28;20506;-76
2022/11/23 10:38:41;;;;;;;18.83;4.28;;;9.10;99.90;;;;;;5031194;28;20609;-76
2022/11/23 10:41:12;;;;;;;13.18;4.18;;;9.10;99.90;;;;;;5026533;28;20048;-77
2022/11/23 10:43:47;;;;;;;16.25;4.25;;;9.10;99.90;;;;;;5042269;28;20036;-75
2022/11/23 10:46:38;;;;;;;15.40;4.70;;;9.10;99.90;;;;;;5047810;28;20036;-76
2022/11/23 10:49:26;;;;;;;12.88;4.25;;;9.10;99.90;;;;;;5044727;28;20536;-75
2022/11/23 10:51:55;;;;;;;13.27;4.13;;;9.10;99.90;;;;;;5030523;28;20061;-75
2022/11/23 10:54:49;;;;;;;19.45;4.30;;;9.00;99.90;;;;;;5045781;28;20045;-75
2022/11/23 10:57:27;;;;;;;14.25;3.92;;;9.00;99.90;;;;;;5039989;28;20036;-76
2022/11/23 11:00:17;;;;;;;18.05;4.35;;;9.00;99.90;;;;;;5049030;28;20052;-76
2022/11/23 11:02:48;;;;;;;12.52;4.18;;;9.30;99.90;;;;;;5032582;28;20068;-76
2022/11/23 11:05:34;;;;;;;14.32;4.03;;;9.00;99.90;;;;;;5028217;28;20048;-76
2022/11/23 11:08:10;;;;;;;14.02;4.35;;;9.00;99.90;;;;;;5036020;28;20099;-75
2022/11/23 11:10:39;;;;;;;14.50;4.18;;;9.40;99.90;;;;;;5045803;28;20053;-76
2022/11/23 11:13:44;;;;;;;15.32;4.15;;;8.90;99.90;;;;;;5048749;28;20047;-76
2022/11/23 11:16:32;;;;;;;14.65;3.70;;;8.90;99.90;;;;;;5017839;28;20048;-76
2022/11/23 11:18:59;;;;;;;17.08;3.85;;;9.00;99.90;;;;;;5051527;28;20033;-75
2022/11/23 11:21:43;;;;;;;11.35;3.55;;;9.00;99.90;;;;;;5049454;28;20045;-76
2022/11/23 11:24:24;;;;;;;14.27;3.28;;;9.00;99.90;;;;;;5013383;28;20391;-75
2022/11/23 11:27:00;;;;;;;17.92;3.47;;;9.00;99.90;;;;;;5046514;28;20081;-75
2022/11/23 11:29:47;;;;;;;13.82;3.25;;;9.10;99.90;;;;;;5049525;28;20048;-76
2022/11/23 11:32:42;;;;;;;15.20;3.22;;;9.30;99.90;;;;;;5044689;28;20059;-77
2022/11/23 11:35:14;;;;;;;14.88;3.33;;;9.30;99.90;;;;;;5030380;28;20036;-76
2022/11/23 11:37:45;;;;;;;12.15;3.22;;;9.30;99.90;;;;;;5042967;28;20041;-76
2022/11/23 11:40:19;;;;;;;14.63;3.35;;;9.20;99.90;;;;;;5055681;28;20102;-75
2022/11/23 11:43:15;;;;;;;13.82;3.33;;;8.00;99.90;;;;;;5040168;28;20107;-76
2022/11/23 11:45:50;;;;;;;14.40;3.53;;;9.10;99.90;;;;;;5044327;28;20036;-76
2022/11/23 11:48:19;;;;;;;15.65;3.33;;;9.20;99.90;;;;;;5031929;28;20045;-76
2022/11/23 11:51:06;;;;;;;13.00;3.03;;;9.20;99.90;;;;;;5037057;28;20033;-76
2022/11/23 11:53:47;;;;;;;13.95;3.63;;;9.30;99.90;;;;;;5035188;28;20045;-75
2022/11/23 11:56:44;;;;;;;15.90;3.35;;;9.60;99.90;;;;;;5044241;28;20041;-76
2022/11/23 11:59:14;;;;;;;15.52;2.95;;;9.80;99.90;;;;;;5041893;28;20051;-75
2022/11/23 12:01:52;;;;;;;14.48;3.28;;;9.90;99.90;;;;;;5045950;28;20036;-75
2022/11/23 12:04:39;;;;;;;14.20;3.42;;;9.90;99.90;;;;;;5030806;28;20049;-75
2022/11/23 12:07:32;;;;;;;13.30;3.22;;;9.90;99.90;;;;;;5044629;28;20041;-76
2022/11/23 12:10:18;;;;;;;;;;;9.90;99.90;;;;;;5049533;28;20085;-75
2022/11/23 12:12:47;;;;;;;12.48;2.78;;;10.20;99.90;;;;;;5043788;28;19923;-79
2022/11/23 12:15:19;;;;;;;14.40;2.92;;;9.90;99.90;;;;;;5037694;28;20029;-80
2022/11/23 12:18:14;;;;;;;14.75;2.85;;;10.00;99.90;;;;;;5024948;28;20044;-79
2022/11/23 12:21:18;;;;;;;10.98;3.13;;;10.00;99.90;;;;;;5045587;28;20048;-79
2022/11/23 12:23:59;;;;;;;15.07;3.83;;;10.10;99.90;;;;;;5044606;28;20124;-78
2022/11/23 12:26:55;;;;;;;10.52;2.58;;;10.10;99.90;;;;;;5042343;28;20045;-79
2022/11/23 12:29:40;;;;;;;11.35;2.72;;;10.20;99.90;;;;;;5029570;28;20899;-78
2022/11/23 12:32:41;;;;;;;13.73;2.88;;;10.20;99.90;;;;;;5045312;28;20064;-78
2022/11/23 12:35:29;;;;;;;17.60;2.90;;;10.20;99.90;;;;;;5006727;28;20049;-78
2022/11/23 12:38:26;;;;;;;14.10;3.30;;;10.30;99.90;;;;;;5048785;28;20049;-79
2022/11/23 12:41:07;;;;;;;15.27;3.38;;;10.40;99.90;;;;;;5051182;28;20109;-79
2022/11/23 12:43:54;;;;;;;11.68;2.90;;;10.40;99.90;;;;;;5050186;28;20043;-78
2022/11/23 12:46:34;;;;;;;12.93;2.92;;;10.40;99.90;;;;;;5032043;28;20121;-79
2022/11/23 12:49:12;;;;;;;11.38;3.20;;;10.40;99.90;;;;;;5051328;28;20153;-79
2022/11/23 12:51:48;;;;;;;14.57;3.33;;;10.40;99.90;;;;;;5047079;28;20204;-78
2022/11/23 12:54:45;;;;;;;13.70;2.72;;;10.50;99.90;;;;;;5049604;28;20494;-79
2022/11/23 12:57:15;;;;;;;11.70;2.60;;;10.50;99.90;;;;;;5051045;28;20176;-78